Time;durP1;ratioP1;P1;durP2;ratioP2;P2;SDS_P1;SDS_P2;PMS_P1;PMS_P2;Temp;Humidity;BMP_temperature;BMP_pressure;BME280_temperature;BME280_humidity;BME280_pressure;Samples;Min_cycle;Max_cycle;Signal;HPM_P1;HPM_P2
2024/03/15 00:00:42;;;;;;;7.25;3.20;;;;;;;;;;5132249;28;20035;-47
2024/03/15 00:03:10;;;;;;;9.05;3.58;;;;;;;;;;5133437;28;20063;-47
2024/03/15 00:05:36;;;;;;;7.15;3.53;;;;;;;;;;5133062;27;20031;-48
2024/03/15 00:08:02;;;;;;;9.70;3.30;;;;;;;;;;5136827;27;20047;-48
2024/03/15 00:10:50;;;;;;;7.43;3.45;;;;;;;;;;5136991;27;20038;-49
2024/03/15 00:13:15;;;;;;;7.30;3.55;;;;;;;;;;5136858;27;20027;-49
2024/03/15 00:15:41;;;;;;;8.52;3.20;;;;;;;;;;5118285;27;20483;-52
2024/03/15 00:18:08;;;;;;;7.88;3.05;;;;;;;;;;5126618;27;20050;-47
2024/03/15 00:20:37;;;;;;;7.45;3.25;;;;;;;;;;5118543;27;20031;-47
2024/03/15 00:23:06;;;;;;;10.07;3.50;;;;;;;;;;5136816;27;20087;-47
2024/03/15 00:25:33;;;;;;;9.82;3.63;;;;;;;;;;5136551;27;20023;-47
2024/03/15 00:27:59;;;;;;;6.30;3.00;;;;;;;;;;5136282;27;20201;-48
2024/03/15 00:30:26;;;;;;;6.78;3.35;;;;;;;;;;5143792;27;20129;-47
2024/03/15 00:32:52;;;;;;;9.40;3.85;;;;;;;;;;5157165;27;20015;-47
2024/03/15 00:35:19;;;;;;;8.23;3.20;;;;;;;;;;5156835;27;20118;-49
2024/03/15 00:37:46;;;;;;;8.55;3.50;;;;;;;;;;5155832;27;20376;-49
2024/03/15 00:40:12;;;;;;;8.85;3.05;;;;;;;;;;5154060;27;20050;-48
2024/03/15 00:42:38;;;;;;;8.80;3.50;;;;;;;;;;5155102;27;20034;-49
2024/03/15 00:45:05;;;;;;;9.73;3.03;;;;;;;;;;5156997;27;20075;-47
2024/03/15 00:47:31;;;;;;;7.43;3.53;;;;;;;;;;5152388;27;20483;-49
2024/03/15 00:49:57;;;;;;;5.97;3.38;;;;;;;;;;5156644;27;20039;-46
2024/03/15 00:52:23;;;;;;;9.73;3.25;;;;;;;;;;5156420;27;20038;-48
2024/03/15 00:54:49;;;;;;;9.57;3.22;;;;;;;;;;5157337;27;20023;-47
2024/03/15 00:57:15;;;;;;;9.18;4.15;;;;;;;;;;5156488;27;20310;-47
2024/03/15 00:59:41;;;;;;;7.32;3.13;;;;;;;;;;5137936;27;20026;-49
2024/03/15 01:02:07;;;;;;;5.78;2.95;;;;;;;;;;5137493;27;20023;-47
2024/03/15 01:04:34;;;;;;;7.97;3.20;;;;;;;;;;5138009;27;20137;-48
2024/03/15 01:07:01;;;;;;;6.00;3.97;;;;;;;;;;5153858;27;20019;-48
2024/03/15 01:09:29;;;;;;;9.82;3.30;;;;;;;;;;5135609;27;20050;-48
2024/03/15 01:11:55;;;;;;;10.07;3.40;;;;;;;;;;5135538;27;20042;-47
2024/03/15 01:14:22;;;;;;;6.75;3.03;;;;;;;;;;5135704;27;20019;-48
2024/03/15 01:16:48;;;;;;;7.63;3.13;;;;;;;;;;5135575;27;20026;-47
2024/03/15 01:19:14;;;;;;;7.65;3.33;;;;;;;;;;5135023;27;20016;-48
2024/03/15 01:21:40;;;;;;;11.07;4.00;;;;;;;;;;5135712;27;20349;-50
2024/03/15 01:24:06;;;;;;;9.43;3.92;;;;;;;;;;5135715;27;20027;-47
2024/03/15 01:26:32;;;;;;;13.68;4.15;;;;;;;;;;5135596;27;20028;-48
2024/03/15 01:28:58;;;;;;;6.15;3.92;;;;;;;;;;5135390;27;20031;-49
2024/03/15 01:31:24;;;;;;;8.57;3.85;;;;;;;;;;5142636;27;20062;-47
2024/03/15 01:33:50;;;;;;;8.60;3.97;;;;;;;;;;5151865;27;20091;-50
2024/03/15 01:36:17;;;;;;;9.15;3.70;;;;;;;;;;5135480;27;20487;-48
2024/03/15 01:38:43;;;;;;;8.18;4.20;;;;;;;;;;5143457;27;20044;-47
2024/03/15 01:41:09;;;;;;;6.13;3.78;;;;;;;;;;5099881;27;20084;-48
2024/03/15 01:43:48;;;;;;;5.65;3.67;;;;;;;;;;5135139;27;20165;-47
2024/03/15 01:46:14;;;;;;;10.43;3.58;;;;;;;;;;5135207;27;20094;-48
2024/03/15 01:48:40;;;;;;;8.15;3.30;;;;;;;;;;5149648;27;20054;-47
2024/03/15 01:51:06;;;;;;;5.35;2.90;;;;;;;;;;5155178;27;20038;-47
2024/03/15 01:53:32;;;;;;;5.55;3.10;;;;;;;;;;5137011;27;20021;-48
2024/03/15 01:56:00;;;;;;;10.10;3.47;;;;;;;;;;5155755;27;20035;-48
2024/03/15 01:58:26;;;;;;;7.78;3.65;;;;;;;;;;5124607;27;20440;-49
2024/03/15 02:00:56;;;;;;;7.22;3.13;;;;;;;;;;5134739;27;20047;-47
2024/03/15 02:03:23;;;;;;;8.43;3.80;;;;;;;;;;5116279;27;20110;-48
2024/03/15 02:05:49;;;;;;;8.50;3.30;;;;;;;;;;5138583;27;20026;-47
2024/03/15 02:08:21;;;;;;;9.40;3.90;;;;;;;;;;5154910;27;20042;-48
2024/03/15 02:10:47;;;;;;;12.75;4.75;;;;;;;;;;5127571;27;20536;-47
2024/03/15 02:13:15;;;;;;;10.23;4.32;;;;;;;;;;5133632;27;20027;-47
2024/03/15 02:15:42;;;;;;;8.60;4.32;;;;;;;;;;5133883;27;20019;-47
2024/03/15 02:18:08;;;;;;;8.65;4.28;;;;;;;;;;5143397;27;20027;-47
2024/03/15 02:20:34;;;;;;;9.18;3.58;;;;;;;;;;5153610;27;20057;-47
2024/03/15 02:23:03;;;;;;;6.35;3.60;;;;;;;;;;5153567;27;20029;-47
2024/03/15 02:25:29;;;;;;;8.35;3.90;;;;;;;;;;5122491;27;20033;-46
2024/03/15 02:27:55;;;;;;;10.32;3.88;;;;;;;;;;5153552;27;20031;-46
2024/03/15 02:30:21;;;;;;;7.07;3.88;;;;;;;;;;5154020;27;20027;-46
2024/03/15 02:32:47;;;;;;;9.20;4.20;;;;;;;;;;5154454;27;20023;-46
2024/03/15 02:35:43;;;;;;;11.57;3.88;;;;;;;;;;5149692;27;20022;-46
2024/03/15 02:38:09;;;;;;;7.63;3.45;;;;;;;;;;5154150;27;20046;-47
2024/03/15 02:40:35;;;;;;;8.93;4.03;;;;;;;;;;5154080;27;20487;-47
2024/03/15 02:43:02;;;;;;;5.72;3.65;;;;;;;;;;5138698;27;20031;-47
2024/03/15 02:45:28;;;;;;;7.95;3.72;;;;;;;;;;5134063;27;20023;-47
2024/03/15 02:47:54;;;;;;;8.65;3.80;;;;;;;;;;5134822;27;20141;-49
2024/03/15 02:50:20;;;;;;;5.65;3.10;;;;;;;;;;5138967;27;20121;-47
2024/03/15 02:52:47;;;;;;;7.13;3.38;;;;;;;;;;5135987;27;20023;-47
2024/03/15 02:55:14;;;;;;;6.55;3.08;;;;;;;;;;5152686;27;20373;-49
2024/03/15 02:57:40;;;;;;;7.43;3.40;;;;;;;;;;5154429;27;20055;-49
2024/03/15 03:00:08;;;;;;;7.22;3.20;;;;;;;;;;5135475;27;20043;-47
2024/03/15 03:02:34;;;;;;;5.57;3.08;;;;;;;;;;5153717;27;20433;-48
2024/03/15 03:05:00;;;;;;;6.82;3.83;;;;;;;;;;5150743;27;20073;-46
2024/03/15 03:07:27;;;;;;;4.32;2.90;;;;;;;;;;5135933;27;20018;-47
2024/03/15 03:09:53;;;;;;;5.93;3.78;;;;;;;;;;5154051;27;20095;-47
2024/03/15 03:12:19;;;;;;;5.72;3.22;;;;;;;;;;5154271;27;20034;-46
2024/03/15 03:14:45;;;;;;;5.65;3.17;;;;;;;;;;5153101;27;20533;-48
2024/03/15 03:17:11;;;;;;;7.10;3.08;;;;;;;;;;5133494;28;20027;-46
2024/03/15 03:19:37;;;;;;;6.60;2.80;;;;;;;;;;5133818;28;20027;-47
2024/03/15 03:22:03;;;;;;;3.70;2.88;;;;;;;;;;5133495;27;20016;-51
2024/03/15 03:24:29;;;;;;;8.23;3.22;;;;;;;;;;5115044;28;20031;-53
2024/03/15 03:26:55;;;;;;;6.00;3.38;;;;;;;;;;5141467;27;20038;-49
2024/03/15 03:29:22;;;;;;;5.30;3.17;;;;;;;;;;5134610;27;20488;-47
2024/03/15 03:31:48;;;;;;;8.23;3.03;;;;;;;;;;5133236;27;20084;-48
2024/03/15 03:34:14;;;;;;;7.35;3.33;;;;;;;;;;5135360;27;20034;-47
2024/03/15 03:36:42;;;;;;;8.73;3.28;;;;;;;;;;5133340;28;20388;-47
2024/03/15 03:39:10;;;;;;;7.88;4.18;;;;;;;;;;5114851;28;20027;-50
2024/03/15 03:41:36;;;;;;;5.35;3.03;;;;;;;;;;5146935;27;20380;-49
2024/03/15 03:44:03;;;;;;;7.97;3.38;;;;;;;;;;5154346;27;20110;-47
2024/03/15 03:46:29;;;;;;;6.50;3.65;;;;;;;;;;5139614;27;20076;-46
2024/03/15 03:48:55;;;;;;;8.35;3.58;;;;;;;;;;5157976;27;20023;-50
2024/03/15 03:51:21;;;;;;;9.02;3.10;;;;;;;;;;5130759;27;20031;-53
2024/03/15 03:53:48;;;;;;;10.15;3.92;;;;;;;;;;5154458;27;20019;-49
2024/03/15 03:56:15;;;;;;;5.90;3.75;;;;;;;;;;5158052;27;20014;-53
2024/03/15 03:58:41;;;;;;;7.05;3.58;;;;;;;;;;5157894;27;20023;-52
2024/03/15 04:01:07;;;;;;;7.82;3.80;;;;;;;;;;5157126;27;20033;-48
2024/03/15 04:03:33;;;;;;;7.47;3.85;;;;;;;;;;5156624;27;20050;-46
2024/03/15 04:06:00;;;;;;;9.23;4.32;;;;;;;;;;5157927;27;20054;-48
2024/03/15 04:08:57;;;;;;;7.05;4.60;;;;;;;;;;5151424;27;20047;-46
2024/03/15 04:11:24;;;;;;;10.93;5.55;;;;;;;;;;5155425;27;20069;-47
2024/03/15 04:13:52;;;;;;;6.55;4.80;;;;;;;;;;5157338;27;20042;-46
2024/03/15 04:16:18;;;;;;;7.35;5.38;;;;;;;;;;5157505;27;20034;-47
2024/03/15 04:18:44;;;;;;;10.90;4.82;;;;;;;;;;5149398;27;20106;-47
2024/03/15 04:21:12;;;;;;;8.80;5.40;;;;;;;;;;5118220;27;20027;-46
2024/03/15 04:23:43;;;;;;;10.02;4.63;;;;;;;;;;5136950;27;20087;-46
2024/03/15 04:26:09;;;;;;;8.55;4.25;;;;;;;;;;5136706;27;20388;-47
2024/03/15 04:28:37;;;;;;;8.00;3.72;;;;;;;;;;5143715;27;20019;-48
2024/03/15 04:31:05;;;;;;;10.30;3.63;;;;;;;;;;5132449;27;20484;-46
2024/03/15 04:33:32;;;;;;;9.35;3.55;;;;;;;;;;5136535;27;20015;-46
2024/03/15 04:36:04;;;;;;;10.07;3.92;;;;;;;;;;5136662;27;20088;-46
2024/03/15 04:38:30;;;;;;;8.85;3.70;;;;;;;;;;5136891;27;20034;-46
2024/03/15 04:40:56;;;;;;;6.72;3.38;;;;;;;;;;5136523;27;20027;-46
2024/03/15 04:43:22;;;;;;;7.07;3.17;;;;;;;;;;5136250;27;20068;-46
2024/03/15 04:45:48;;;;;;;6.97;3.33;;;;;;;;;;5136376;27;20072;-47
2024/03/15 04:48:14;;;;;;;9.00;4.00;;;;;;;;;;5136274;27;20062;-48
2024/03/15 04:50:40;;;;;;;7.85;3.90;;;;;;;;;;5141989;27;20043;-47
2024/03/15 04:53:06;;;;;;;7.53;4.15;;;;;;;;;;5152902;27;20023;-48
2024/03/15 04:55:33;;;;;;;8.75;4.90;;;;;;;;;;5152457;27;20350;-46
2024/03/15 04:58:00;;;;;;;8.52;5.65;;;;;;;;;;5117550;27;20357;-46
2024/03/15 05:00:26;;;;;;;7.57;5.60;;;;;;;;;;5135988;27;20019;-47
2024/03/15 05:02:52;;;;;;;9.40;6.38;;;;;;;;;;5149062;27;20022;-47
2024/03/15 05:05:20;;;;;;;8.43;5.60;;;;;;;;;;5156319;27;20547;-46
2024/03/15 05:07:47;;;;;;;11.52;5.30;;;;;;;;;;5137105;27;20030;-46
2024/03/15 05:10:16;;;;;;;8.73;5.22;;;;;;;;;;5137157;27;20029;-46
2024/03/15 05:12:43;;;;;;;10.25;5.00;;;;;;;;;;5155706;27;20164;-46
2024/03/15 05:15:12;;;;;;;7.85;5.05;;;;;;;;;;5156363;27;20022;-46
2024/03/15 05:17:38;;;;;;;8.27;5.13;;;;;;;;;;5156461;27;20105;-48
2024/03/15 05:20:19;;;;;;;7.82;4.90;;;;;;;;;;5155512;27;20034;-48
2024/03/15 05:22:45;;;;;;;9.18;4.90;;;;;;;;;;5145856;27;20027;-46
2024/03/15 05:25:14;;;;;;;8.65;3.95;;;;;;;;;;5156351;27;20068;-48
2024/03/15 05:27:41;;;;;;;6.53;3.50;;;;;;;;;;5138934;27;20038;-51
2024/03/15 05:30:07;;;;;;;8.77;3.47;;;;;;;;;;5136853;27;20019;-46
2024/03/15 05:32:34;;;;;;;8.35;3.20;;;;;;;;;;5147053;27;20036;-46
2024/03/15 05:35:00;;;;;;;5.82;2.72;;;;;;;;;;5135193;27;20024;-47
2024/03/15 05:37:29;;;;;;;4.93;3.40;;;;;;;;;;5116625;27;20027;-47
2024/03/15 05:39:55;;;;;;;6.32;3.28;;;;;;;;;;5135194;27;20421;-46
2024/03/15 05:42:22;;;;;;;5.40;2.97;;;;;;;;;;5135225;27;20023;-48
2024/03/15 05:44:48;;;;;;;5.80;2.92;;;;;;;;;;5134971;27;20019;-48
2024/03/15 05:47:17;;;;;;;5.63;2.78;;;;;;;;;;5143305;27;20011;-48
2024/03/15 05:49:43;;;;;;;5.18;2.33;;;;;;;;;;5154765;27;20026;-47
2024/03/15 05:52:10;;;;;;;8.43;3.03;;;;;;;;;;5151309;27;20035;-46
2024/03/15 05:54:37;;;;;;;9.50;2.60;;;;;;;;;;5148254;27;20035;-48
2024/03/15 05:57:06;;;;;;;6.20;2.80;;;;;;;;;;5155569;27;20019;-48
2024/03/15 05:59:32;;;;;;;5.57;2.30;;;;;;;;;;5155147;27;20484;-48
2024/03/15 06:01:59;;;;;;;6.38;2.63;;;;;;;;;;5155112;27;20034;-48
2024/03/15 06:04:25;;;;;;;7.05;2.72;;;;;;;;;;5144162;27;20019;-51
2024/03/15 06:06:51;;;;;;;5.03;2.72;;;;;;;;;;5134707;27;20027;-49
2024/03/15 06:09:17;;;;;;;4.60;2.45;;;;;;;;;;5154790;27;20055;-46
2024/03/15 06:11:43;;;;;;;7.07;2.53;;;;;;;;;;5134366;27;20467;-46
2024/03/15 06:14:11;;;;;;;5.90;3.03;;;;;;;;;;5155216;27;20038;-48
2024/03/15 06:16:40;;;;;;;4.78;3.17;;;;;;;;;;5148358;27;20117;-49
2024/03/15 06:19:07;;;;;;;7.68;2.67;;;;;;;;;;5136267;27;20022;-47
2024/03/15 06:21:33;;;;;;;7.15;2.53;;;;;;;;;;5147529;27;20049;-46
2024/03/15 06:24:03;;;;;;;6.65;3.05;;;;;;;;;;5134356;27;20076;-46
2024/03/15 06:26:29;;;;;;;4.78;2.10;;;;;;;;;;5133988;27;20433;-45
2024/03/15 06:29:05;;;;;;;5.65;2.75;;;;;;;;;;5133369;27;20118;-44
2024/03/15 06:31:31;;;;;;;6.38;2.88;;;;;;;;;;5134423;27;20082;-47
2024/03/15 06:34:02;;;;;;;5.32;2.63;;;;;;;;;;5134118;27;20063;-47
2024/03/15 06:36:29;;;;;;;5.53;2.88;;;;;;;;;;5133502;27;20120;-47
2024/03/15 06:38:57;;;;;;;4.88;3.03;;;;;;;;;;5141362;27;20025;-48
2024/03/15 06:47:04;;;;;;;6.20;2.78;;;;;;;;;;5141631;27;20042;-45
2024/03/15 06:49:43;;;;;;;6.82;2.60;;;;;;;;;;5145886;27;20023;-45
2024/03/15 06:54:55;;;;;;;8.73;2.92;;;;;;;;;;5140937;27;20033;-46
2024/03/15 06:57:22;;;;;;;5.15;3.25;;;;;;;;;;5150498;27;20022;-46
2024/03/15 06:59:48;;;;;;;6.70;2.78;;;;;;;;;;5139437;27;20014;-46
2024/03/15 07:02:14;;;;;;;6.03;2.63;;;;;;;;;;5145815;27;20061;-47
2024/03/15 07:04:40;;;;;;;8.65;3.10;;;;;;;;;;5145362;27;20472;-46
2024/03/15 07:07:07;;;;;;;5.70;2.50;;;;;;;;;;5150306;27;20075;-47
2024/03/15 07:09:33;;;;;;;11.95;2.88;;;;;;;;;;5153070;27;20179;-47
2024/03/15 07:11:59;;;;;;;4.32;2.70;;;;;;;;;;5135108;27;20533;-47
2024/03/15 07:14:25;;;;;;;6.80;3.00;;;;;;;;;;5136518;27;20030;-47
2024/03/15 07:16:51;;;;;;;6.07;2.30;;;;;;;;;;5152213;27;20465;-48
2024/03/15 07:19:18;;;;;;;6.22;3.15;;;;;;;;;;5147489;27;20019;-46
2024/03/15 07:21:44;;;;;;;6.25;2.22;;;;;;;;;;5148334;27;20029;-48
2024/03/15 07:24:10;;;;;;;7.57;3.13;;;;;;;;;;5153364;27;20061;-50
2024/03/15 07:26:37;;;;;;;4.38;2.47;;;;;;;;;;5133410;27;20051;-47
2024/03/15 07:29:04;;;;;;;4.53;2.67;;;;;;;;;;5133526;28;20046;-48
2024/03/15 07:31:30;;;;;;;20.95;8.48;;;;;;;;;;5114849;28;20401;-47
2024/03/15 07:33:59;;;;;;;7.18;3.80;;;;;;;;;;5124648;27;20527;-48
2024/03/15 07:36:27;;;;;;;7.05;2.90;;;;;;;;;;5154163;27;20027;-49
2024/03/15 07:38:53;;;;;;;6.03;2.53;;;;;;;;;;5154007;27;20098;-48
2024/03/15 07:41:21;;;;;;;6.82;2.70;;;;;;;;;;5153829;27;20424;-49
2024/03/15 07:43:47;;;;;;;6.93;3.17;;;;;;;;;;5153855;27;20058;-50
2024/03/15 07:46:13;;;;;;;7.40;2.85;;;;;;;;;;5153940;27;20046;-48
2024/03/15 07:48:42;;;;;;;4.38;2.38;;;;;;;;;;5153803;27;20476;-49
2024/03/15 07:51:08;;;;;;;5.30;2.40;;;;;;;;;;5153736;27;20144;-49
2024/03/15 07:53:34;;;;;;;6.78;2.55;;;;;;;;;;5153940;27;20022;-50
2024/03/15 07:56:03;;;;;;;12.43;2.97;;;;;;;;;;5153357;27;20033;-50
2024/03/15 07:58:31;;;;;;;4.07;2.60;;;;;;;;;;5153409;27;20026;-51
2024/03/15 08:00:57;;;;;;;4.20;2.78;;;;;;;;;;5154115;27;20030;-48
2024/03/15 08:03:24;;;;;;;3.25;2.25;;;;;;;;;;5153770;27;20026;-49
2024/03/15 08:08:53;;;;;;;7.47;2.75;;;;;;;;;;5137281;27;20196;-49
2024/03/15 08:11:19;;;;;;;6.35;2.58;;;;;;;;;;5148392;27;20137;-44
2024/03/15 08:13:46;;;;;;;5.82;2.55;;;;;;;;;;5130185;27;20019;-48
2024/03/15 08:16:18;;;;;;;6.03;2.92;;;;;;;;;;5153708;27;20102;-46
2024/03/15 08:18:47;;;;;;;5.32;2.50;;;;;;;;;;5149017;27;20020;-47
2024/03/15 08:21:15;;;;;;;4.00;2.40;;;;;;;;;;5133009;28;20090;-48
2024/03/15 08:23:42;;;;;;;5.40;2.05;;;;;;;;;;5132813;28;20110;-60
2024/03/15 08:26:09;;;;;;;5.72;2.38;;;;;;;;;;5115081;28;20391;-61
2024/03/15 08:28:36;;;;;;;8.10;2.72;;;;;;;;;;5136104;27;20106;-54
2024/03/15 08:31:01;;;;;;;3.10;1.80;;;;;;;;;;5149738;27;20035;-51
2024/03/15 08:33:27;;;;;;;4.57;2.20;;;;;;;;;;5140069;27;20506;-61
2024/03/15 08:35:53;;;;;;;4.63;2.30;;;;;;;;;;5136392;27;20023;-62
2024/03/15 08:38:20;;;;;;;6.78;2.25;;;;;;;;;;5136287;27;20034;-64
2024/03/15 08:40:46;;;;;;;5.10;2.67;;;;;;;;;;5136236;27;20106;-61
2024/03/15 08:43:12;;;;;;;5.15;2.35;;;;;;;;;;5141418;27;20054;-64
2024/03/15 08:45:38;;;;;;;3.97;2.20;;;;;;;;;;5149351;27;20464;-62
2024/03/15 08:48:04;;;;;;;6.28;2.80;;;;;;;;;;5138921;27;20412;-61
2024/03/15 08:50:33;;;;;;;7.68;2.70;;;;;;;;;;5138006;27;20031;-59
2024/03/15 08:53:02;;;;;;;4.43;2.80;;;;;;;;;;5153075;27;20029;-51
2024/03/15 08:55:28;;;;;;;3.85;2.17;;;;;;;;;;5153724;27;20027;-56
2024/03/15 08:57:54;;;;;;;5.55;2.80;;;;;;;;;;5121499;27;20480;-53
2024/03/15 09:00:20;;;;;;;5.68;2.75;;;;;;;;;;5151481;27;20059;-56
2024/03/15 09:02:46;;;;;;;6.28;3.05;;;;;;;;;;5151245;27;20477;-52
2024/03/15 09:05:14;;;;;;;7.40;2.63;;;;;;;;;;5148674;27;20476;-45
2024/03/15 09:07:41;;;;;;;7.22;2.78;;;;;;;;;;5140559;27;20042;-44
2024/03/15 09:10:16;;;;;;;7.13;2.85;;;;;;;;;;5141910;27;20100;-49
2024/03/15 09:12:42;;;;;;;7.55;2.50;;;;;;;;;;5138837;27;20059;-57
2024/03/15 09:15:11;;;;;;;5.18;2.85;;;;;;;;;;5135487;27;20038;-44
2024/03/15 09:17:38;;;;;;;4.20;2.50;;;;;;;;;;5139489;27;20058;-43
2024/03/15 09:20:18;;;;;;;4.47;3.05;;;;;;;;;;5117253;27;20020;-43
2024/03/15 09:22:45;;;;;;;5.03;3.13;;;;;;;;;;5124416;27;20023;-44
2024/03/15 09:25:18;;;;;;;4.45;2.90;;;;;;;;;;5135994;27;20027;-44
2024/03/15 09:27:45;;;;;;;4.13;2.65;;;;;;;;;;5138744;27;20023;-43
2024/03/15 09:33:15;;;;;;;4.47;2.78;;;;;;;;;;5154261;27;20099;-43
2024/03/15 09:35:47;;;;;;;5.35;3.03;;;;;;;;;;5136660;27;20121;-44
2024/03/15 09:38:14;;;;;;;6.07;2.70;;;;;;;;;;5126815;27;20029;-44
2024/03/15 09:40:40;;;;;;;6.40;2.97;;;;;;;;;;5136454;27;20019;-44
2024/03/15 09:43:10;;;;;;;9.45;3.58;;;;;;;;;;5149833;27;20019;-43
2024/03/15 09:45:36;;;;;;;5.32;2.60;;;;;;;;;;5144418;27;20018;-47
2024/03/15 09:48:03;;;;;;;5.15;2.08;;;;;;;;;;5140212;27;20034;-44
2024/03/15 09:50:29;;;;;;;3.45;1.98;;;;;;;;;;5147581;27;20030;-45
2024/03/15 09:52:57;;;;;;;3.83;2.00;;;;;;;;;;5121880;27;20051;-43
2024/03/15 09:55:23;;;;;;;7.13;1.80;;;;;;;;;;5119062;27;20034;-54
2024/03/15 09:57:51;;;;;;;4.57;2.15;;;;;;;;;;5147089;27;20023;-47
2024/03/15 10:00:21;;;;;;;4.25;2.60;;;;;;;;;;5150143;27;20049;-52
2024/03/15 10:02:51;;;;;;;5.32;2.33;;;;;;;;;;5143680;27;20076;-46
2024/03/15 10:05:20;;;;;;;5.30;2.13;;;;;;;;;;5149523;27;20022;-54
2024/03/15 10:07:47;;;;;;;4.47;2.70;;;;;;;;;;5147372;27;20023;-47
2024/03/15 10:10:14;;;;;;;4.18;2.05;;;;;;;;;;5101366;27;20051;-56
2024/03/15 10:12:50;;;;;;;6.35;2.08;;;;;;;;;;5096291;28;20081;-45
2024/03/15 10:15:18;;;;;;;5.22;2.72;;;;;;;;;;5101320;28;20061;-56
2024/03/15 10:17:45;;;;;;;4.45;2.28;;;;;;;;;;5102471;27;20035;-57
2024/03/15 10:20:14;;;;;;;8.90;2.50;;;;;;;;;;5093272;28;20089;-52
2024/03/15 10:22:41;;;;;;;5.00;2.22;;;;;;;;;;5097497;28;20054;-53
2024/03/15 10:25:17;;;;;;;6.40;2.17;;;;;;;;;;5093990;28;20024;-54
2024/03/15 10:27:43;;;;;;;7.97;2.55;;;;;;;;;;5094666;28;20404;-58
2024/03/15 10:30:16;;;;;;;4.60;2.50;;;;;;;;;;5094879;28;20047;-57
2024/03/15 10:32:46;;;;;;;5.32;3.10;;;;;;;;;;5107152;28;20039;-57
2024/03/15 10:35:12;;;;;;;8.10;3.22;;;;;;;;;;5096849;28;20036;-58
2024/03/15 10:37:39;;;;;;;4.93;2.95;;;;;;;;;;5111434;28;20028;-61
2024/03/15 10:40:09;;;;;;;6.07;3.13;;;;;;;;;;5107305;28;20024;-58
2024/03/15 10:42:35;;;;;;;5.32;4.05;;;;;;;;;;5102972;27;20104;-49
2024/03/15 10:45:01;;;;;;;6.18;3.05;;;;;;;;;;5102414;28;20027;-47
2024/03/15 10:47:28;;;;;;;3.88;2.75;;;;;;;;;;5112224;28;20110;-49
2024/03/15 10:49:54;;;;;;;5.50;3.17;;;;;;;;;;5106066;28;20036;-47
2024/03/15 10:52:22;;;;;;;6.85;3.20;;;;;;;;;;5107682;28;20126;-58
2024/03/15 10:54:50;;;;;;;5.25;3.03;;;;;;;;;;5109161;28;20103;-46
2024/03/15 10:57:17;;;;;;;4.80;3.60;;;;;;;;;;5102049;28;20104;-51
2024/03/15 10:59:44;;;;;;;4.50;3.50;;;;;;;;;;5093190;28;20028;-50
2024/03/15 11:02:10;;;;;;;8.30;3.25;;;;;;;;;;5093823;28;20485;-50
2024/03/15 11:04:37;;;;;;;3.80;3.30;;;;;;;;;;5093003;28;20031;-49
2024/03/15 11:07:03;;;;;;;4.40;3.58;;;;;;;;;;5091475;28;20501;-54
2024/03/15 11:09:34;;;;;;;5.15;3.40;;;;;;;;;;5105779;27;20043;-47
2024/03/15 11:12:01;;;;;;;5.72;3.67;;;;;;;;;;5114159;28;20035;-60
2024/03/15 11:14:31;;;;;;;4.63;3.25;;;;;;;;;;5136546;27;20031;-50
2024/03/15 11:17:02;;;;;;;5.85;2.92;;;;;;;;;;5133311;27;20062;-58
2024/03/15 11:19:28;;;;;;;7.00;3.90;;;;;;;;;;5132901;27;20046;-50
2024/03/15 11:22:04;;;;;;;3.83;3.30;;;;;;;;;;5139079;27;20472;-57
2024/03/15 11:24:40;;;;;;;5.72;3.65;;;;;;;;;;5142047;27;20230;-56
2024/03/15 11:27:09;;;;;;;4.22;3.38;;;;;;;;;;5138650;27;20031;-62
2024/03/15 11:29:36;;;;;;;4.78;3.85;;;;;;;;;;5141539;27;20023;-55
2024/03/15 11:32:02;;;;;;;4.28;3.47;;;;;;;;;;5137996;27;20404;-53
2024/03/15 11:34:29;;;;;;;7.15;3.20;;;;;;;;;;5150872;27;20038;-49
2024/03/15 11:36:56;;;;;;;5.05;3.33;;;;;;;;;;5142528;27;20031;-62
2024/03/15 11:39:22;;;;;;;4.47;3.47;;;;;;;;;;5151680;27;20034;-62
2024/03/15 11:41:48;;;;;;;7.72;4.82;;;;;;;;;;5138257;27;20111;-63
2024/03/15 11:44:14;;;;;;;5.82;4.50;;;;;;;;;;5138368;27;20026;-61
2024/03/15 11:46:40;;;;;;;8.10;4.82;;;;;;;;;;5122195;28;20023;-62
2024/03/15 11:49:12;;;;;;;6.45;4.03;;;;;;;;;;5127409;27;20034;-56
2024/03/15 11:51:39;;;;;;;8.30;4.43;;;;;;;;;;5135442;27;20118;-50
2024/03/15 11:54:15;;;;;;;8.27;4.82;;;;;;;;;;5121050;27;20488;-58
2024/03/15 11:56:43;;;;;;;3.63;3.33;;;;;;;;;;5136540;27;20030;-50
2024/03/15 11:59:11;;;;;;;6.82;3.53;;;;;;;;;;5140864;27;20373;-61
2024/03/15 12:01:37;;;;;;;3.33;3.03;;;;;;;;;;5143626;27;20037;-46
2024/03/15 12:04:03;;;;;;;5.60;3.03;;;;;;;;;;5150253;27;20034;-49
2024/03/15 12:06:29;;;;;;;5.65;3.13;;;;;;;;;;5139791;27;20124;-51
2024/03/15 12:09:03;;;;;;;7.97;3.30;;;;;;;;;;5140842;27;20050;-47
2024/03/15 12:11:29;;;;;;;6.07;3.60;;;;;;;;;;5140936;27;20046;-46
2024/03/15 12:13:57;;;;;;;5.63;3.90;;;;;;;;;;5127588;27;20025;-45
2024/03/15 12:16:23;;;;;;;4.65;4.00;;;;;;;;;;5154861;27;20075;-48
2024/03/15 12:18:49;;;;;;;5.95;4.28;;;;;;;;;;5127240;27;20495;-48
2024/03/15 12:21:18;;;;;;;5.80;3.97;;;;;;;;;;5152069;27;20072;-48
2024/03/15 12:23:44;;;;;;;4.93;3.90;;;;;;;;;;5147240;27;20034;-48
2024/03/15 12:26:10;;;;;;;6.88;4.38;;;;;;;;;;5152159;27;20027;-48
2024/03/15 12:28:36;;;;;;;4.97;4.53;;;;;;;;;;5157981;27;20034;-50
2024/03/15 12:31:02;;;;;;;7.28;4.47;;;;;;;;;;5136370;27;20062;-52
2024/03/15 12:33:28;;;;;;;5.47;3.60;;;;;;;;;;5148676;27;20027;-48
2024/03/15 12:35:58;;;;;;;8.10;4.78;;;;;;;;;;5137027;27;20023;-49
2024/03/15 12:38:25;;;;;;;9.38;5.50;;;;;;;;;;5156190;27;20030;-48
2024/03/15 12:40:52;;;;;;;5.68;4.72;;;;;;;;;;5154502;27;20033;-49
2024/03/15 12:43:19;;;;;;;5.18;4.65;;;;;;;;;;5155517;27;20030;-49
2024/03/15 12:45:45;;;;;;;7.43;5.38;;;;;;;;;;5140560;27;20079;-48
2024/03/15 12:48:11;;;;;;;9.10;5.25;;;;;;;;;;5137915;27;20104;-49
2024/03/15 12:50:37;;;;;;;5.75;4.72;;;;;;;;;;5138067;27;20372;-49
2024/03/15 12:53:05;;;;;;;7.85;5.38;;;;;;;;;;5156997;27;20105;-48
2024/03/15 12:55:31;;;;;;;6.82;4.82;;;;;;;;;;5138271;27;20452;-48
2024/03/15 12:57:57;;;;;;;6.43;5.32;;;;;;;;;;5156923;27;20094;-49
2024/03/15 13:00:28;;;;;;;8.00;5.47;;;;;;;;;;5138048;27;20121;-49
2024/03/15 13:02:54;;;;;;;11.10;5.22;;;;;;;;;;5156927;27;20019;-48
2024/03/15 13:05:20;;;;;;;6.70;5.43;;;;;;;;;;5156751;27;20034;-48
2024/03/15 13:07:48;;;;;;;8.77;4.18;;;;;;;;;;5156932;27;20026;-48
2024/03/15 13:10:16;;;;;;;5.30;3.95;;;;;;;;;;5156845;27;20050;-48
2024/03/15 13:12:52;;;;;;;5.05;4.10;;;;;;;;;;5136455;27;20449;-48
2024/03/15 13:15:18;;;;;;;6.47;3.92;;;;;;;;;;5155877;27;20023;-49
2024/03/15 13:17:45;;;;;;;5.35;2.50;;;;;;;;;;5127787;27;20105;-61
2024/03/15 13:20:18;;;;;;;4.15;2.30;;;;;;;;;;5154232;27;20027;-61
2024/03/15 13:22:44;;;;;;;12.07;2.63;;;;;;;;;;5141000;27;20470;-52
2024/03/15 13:25:15;;;;;;;6.78;2.83;;;;;;;;;;5146182;27;20417;-52
2024/03/15 13:27:41;;;;;;;8.05;2.70;;;;;;;;;;5129380;27;20034;-51
2024/03/15 13:30:11;;;;;;;4.20;1.98;;;;;;;;;;5147880;27;20113;-65
2024/03/15 13:32:38;;;;;;;3.67;2.20;;;;;;;;;;5139569;27;20430;-66
2024/03/15 13:35:07;;;;;;;4.43;2.08;;;;;;;;;;5117564;27;20027;-63
2024/03/15 13:37:35;;;;;;;4.03;2.50;;;;;;;;;;5153067;27;20034;-51
2024/03/15 13:40:08;;;;;;;3.15;2.75;;;;;;;;;;5153155;27;20018;-56
2024/03/15 13:42:36;;;;;;;4.28;2.80;;;;;;;;;;5135649;27;20425;-48
2024/03/15 13:45:04;;;;;;;3.72;2.60;;;;;;;;;;5117278;27;20388;-46
2024/03/15 13:47:31;;;;;;;3.55;2.80;;;;;;;;;;5156447;27;20025;-45
2024/03/15 13:49:58;;;;;;;4.57;3.15;;;;;;;;;;5124993;27;20078;-60
2024/03/15 13:52:24;;;;;;;4.88;3.55;;;;;;;;;;5154979;27;20104;-48
2024/03/15 13:54:52;;;;;;;5.53;4.00;;;;;;;;;;5153677;27;20030;-49
2024/03/15 13:57:19;;;;;;;8.50;4.45;;;;;;;;;;5154197;27;20023;-50
2024/03/15 13:59:45;;;;;;;4.47;4.00;;;;;;;;;;5155626;27;20034;-49
2024/03/15 14:02:11;;;;;;;3.92;3.10;;;;;;;;;;5155602;27;20022;-50
2024/03/15 14:04:37;;;;;;;4.70;3.63;;;;;;;;;;5155612;27;20025;-57
2024/03/15 14:07:03;;;;;;;4.15;3.75;;;;;;;;;;5136989;27;20034;-56
2024/03/15 14:09:29;;;;;;;9.40;3.85;;;;;;;;;;5154439;27;20039;-51
2024/03/15 14:11:55;;;;;;;6.45;4.00;;;;;;;;;;5155377;27;20034;-55
2024/03/15 14:14:21;;;;;;;9.25;4.43;;;;;;;;;;5155525;27;20030;-52
2024/03/15 14:16:49;;;;;;;5.70;3.80;;;;;;;;;;5147059;27;20018;-56
2024/03/15 14:19:17;;;;;;;6.55;4.45;;;;;;;;;;5153245;27;20018;-52
2024/03/15 14:21:43;;;;;;;6.85;4.38;;;;;;;;;;5155039;27;20014;-53
2024/03/15 14:24:10;;;;;;;8.10;4.55;;;;;;;;;;5143513;27;20023;-52
2024/03/15 14:26:37;;;;;;;6.10;4.63;;;;;;;;;;5151370;27;20488;-53
2024/03/15 14:29:08;;;;;;;6.32;4.72;;;;;;;;;;5152710;27;20372;-54
2024/03/15 14:31:34;;;;;;;9.90;4.70;;;;;;;;;;5135699;27;20065;-52
2024/03/15 14:34:00;;;;;;;6.00;4.30;;;;;;;;;;5154971;27;20026;-53
2024/03/15 14:36:30;;;;;;;4.65;3.88;;;;;;;;;;5154833;27;20449;-54
2024/03/15 14:38:56;;;;;;;7.95;4.20;;;;;;;;;;5155021;27;20068;-53
2024/03/15 14:41:23;;;;;;;4.88;3.90;;;;;;;;;;5135948;27;20027;-50
2024/03/15 14:43:49;;;;;;;5.60;5.00;;;;;;;;;;5154706;27;20040;-51
2024/03/15 14:46:17;;;;;;;9.15;5.20;;;;;;;;;;5154429;27;20038;-52
2024/03/15 14:48:43;;;;;;;6.43;4.18;;;;;;;;;;5140652;27;20085;-53
2024/03/15 14:51:09;;;;;;;6.35;5.00;;;;;;;;;;5153571;27;20121;-51
2024/03/15 14:53:36;;;;;;;9.77;4.70;;;;;;;;;;5126784;27;20366;-54
2024/03/15 14:56:02;;;;;;;7.25;4.22;;;;;;;;;;5147122;27;20022;-56
2024/03/15 14:58:28;;;;;;;6.70;4.53;;;;;;;;;;5153614;27;20087;-56